sensor_id;sensor_type;location;lat;lon;timestamp;P1;durP1;ratioP1;P2;durP2;ratioP2
81170;SDS011;70644;44.818;20.478;2023-09-08T00:00:17;10.82;;;9.23;;
81170;SDS011;70644;44.818;20.478;2023-09-08T00:02:43;9.63;;;8.63;;
81170;SDS011;70644;44.818;20.478;2023-09-08T00:05:09;10.05;;;9.05;;
81170;SDS011;70644;44.818;20.478;2023-09-08T00:07:35;10.30;;;9.30;;
81170;SDS011;70644;44.818;20.478;2023-09-08T00:10:01;9.68;;;8.77;;
81170;SDS011;70644;44.818;20.478;2023-09-08T00:12:27;10.20;;;9.15;;
81170;SDS011;70644;44.818;20.478;2023-09-08T00:14:53;10.15;;;9.15;;
81170;SDS011;70644;44.818;20.478;2023-09-08T00:17:20;9.95;;;8.95;;
81170;SDS011;70644;44.818;20.478;2023-09-08T00:19:46;10.18;;;9.18;;
81170;SDS011;70644;44.818;20.478;2023-09-08T00:22:12;12.70;;;9.13;;
81170;SDS011;70644;44.818;20.478;2023-09-08T00:24:38;9.98;;;7.85;;
81170;SDS011;70644;44.818;20.478;2023-09-08T00:27:04;10.40;;;9.30;;
81170;SDS011;70644;44.818;20.478;2023-09-08T00:29:30;9.98;;;8.95;;
81170;SDS011;70644;44.818;20.478;2023-09-08T00:31:56;9.52;;;8.60;;
81170;SDS011;70644;44.818;20.478;2023-09-08T00:34:23;10.52;;;8.57;;
81170;SDS011;70644;44.818;20.478;2023-09-08T00:36:49;9.35;;;8.45;;
81170;SDS011;70644;44.818;20.478;2023-09-08T00:39:16;9.32;;;8.32;;
81170;SDS011;70644;44.818;20.478;2023-09-08T00:41:42;10.10;;;9.07;;
81170;SDS011;70644;44.818;20.478;2023-09-08T00:44:09;9.02;;;8.13;;
81170;SDS011;70644;44.818;20.478;2023-09-08T00:46:36;9.63;;;8.60;;
81170;SDS011;70644;44.818;20.478;2023-09-08T00:49:02;9.32;;;8.27;;
81170;SDS011;70644;44.818;20.478;2023-09-08T00:51:28;9.43;;;8.48;;
81170;SDS011;70644;44.818;20.478;2023-09-08T00:53:54;9.50;;;8.57;;
81170;SDS011;70644;44.818;20.478;2023-09-08T00:56:20;8.95;;;8.15;;
81170;SDS011;70644;44.818;20.478;2023-09-08T00:58:46;8.82;;;7.93;;
81170;SDS011;70644;44.818;20.478;2023-09-08T01:01:12;9.35;;;7.90;;
81170;SDS011;70644;44.818;20.478;2023-09-08T01:03:39;10.23;;;9.23;;
81170;SDS011;70644;44.818;20.478;2023-09-08T01:06:05;9.25;;;8.35;;
81170;SDS011;70644;44.818;20.478;2023-09-08T01:08:31;8.95;;;8.05;;
81170;SDS011;70644;44.818;20.478;2023-09-08T01:10:58;9.50;;;8.40;;
81170;SDS011;70644;44.818;20.478;2023-09-08T01:13:24;10.13;;;8.73;;
81170;SDS011;70644;44.818;20.478;2023-09-08T01:15:50;8.95;;;8.05;;
81170;SDS011;70644;44.818;20.478;2023-09-08T01:18:16;8.60;;;7.75;;
81170;SDS011;70644;44.818;20.478;2023-09-08T01:23:21;8.43;;;7.60;;
81170;SDS011;70644;44.818;20.478;2023-09-08T01:25:58;9.18;;;8.10;;
81170;SDS011;70644;44.818;20.478;2023-09-08T01:28:25;8.70;;;7.68;;
81170;SDS011;70644;44.818;20.478;2023-09-08T01:30:51;7.75;;;6.88;;
81170;SDS011;70644;44.818;20.478;2023-09-08T01:33:18;8.68;;;7.78;;
81170;SDS011;70644;44.818;20.478;2023-09-08T01:35:45;9.55;;;8.55;;
81170;SDS011;70644;44.818;20.478;2023-09-08T01:38:11;8.45;;;7.55;;
81170;SDS011;70644;44.818;20.478;2023-09-08T01:40:37;8.40;;;7.60;;
81170;SDS011;70644;44.818;20.478;2023-09-08T01:43:03;9.02;;;8.13;;
81170;SDS011;70644;44.818;20.478;2023-09-08T01:45:29;8.25;;;7.45;;
81170;SDS011;70644;44.818;20.478;2023-09-08T01:47:55;8.55;;;7.72;;
81170;SDS011;70644;44.818;20.478;2023-09-08T01:50:21;8.45;;;7.43;;
81170;SDS011;70644;44.818;20.478;2023-09-08T01:52:49;8.30;;;7.50;;
81170;SDS011;70644;44.818;20.478;2023-09-08T01:55:15;7.93;;;7.13;;
81170;SDS011;70644;44.818;20.478;2023-09-08T01:57:42;8.18;;;7.38;;
81170;SDS011;70644;44.818;20.478;2023-09-08T02:00:09;8.45;;;7.53;;
81170;SDS011;70644;44.818;20.478;2023-09-08T02:02:35;8.38;;;7.47;;
81170;SDS011;70644;44.818;20.478;2023-09-08T02:05:01;8.63;;;7.72;;
81170;SDS011;70644;44.818;20.478;2023-09-08T02:07:27;8.48;;;7.53;;
81170;SDS011;70644;44.818;20.478;2023-09-08T02:09:53;7.97;;;7.07;;
81170;SDS011;70644;44.818;20.478;2023-09-08T02:12:20;8.23;;;7.30;;
81170;SDS011;70644;44.818;20.478;2023-09-08T02:14:46;7.38;;;6.65;;
81170;SDS011;70644;44.818;20.478;2023-09-08T02:17:12;8.27;;;7.47;;
81170;SDS011;70644;44.818;20.478;2023-09-08T02:19:39;8.32;;;7.53;;
81170;SDS011;70644;44.818;20.478;2023-09-08T02:22:05;9.40;;;7.22;;
81170;SDS011;70644;44.818;20.478;2023-09-08T02:24:31;7.68;;;6.80;;
81170;SDS011;70644;44.818;20.478;2023-09-08T02:26:57;7.50;;;6.68;;
81170;SDS011;70644;44.818;20.478;2023-09-08T02:29:23;7.28;;;6.57;;
81170;SDS011;70644;44.818;20.478;2023-09-08T02:31:49;8.75;;;6.53;;
81170;SDS011;70644;44.818;20.478;2023-09-08T02:34:15;7.13;;;6.43;;
81170;SDS011;70644;44.818;20.478;2023-09-08T02:36:41;7.15;;;6.43;;
81170;SDS011;70644;44.818;20.478;2023-09-08T02:39:07;7.90;;;7.10;;
81170;SDS011;70644;44.818;20.478;2023-09-08T02:41:33;6.82;;;6.22;;
81170;SDS011;70644;44.818;20.478;2023-09-08T02:43:59;7.10;;;6.40;;
81170;SDS011;70644;44.818;20.478;2023-09-08T02:46:25;7.50;;;6.80;;
81170;SDS011;70644;44.818;20.478;2023-09-08T02:48:51;7.38;;;6.30;;
81170;SDS011;70644;44.818;20.478;2023-09-08T02:51:17;6.47;;;5.88;;
81170;SDS011;70644;44.818;20.478;2023-09-08T02:53:44;7.40;;;6.57;;
81170;SDS011;70644;44.818;20.478;2023-09-08T02:56:10;6.60;;;5.32;;
81170;SDS011;70644;44.818;20.478;2023-09-08T02:58:36;7.47;;;6.78;;
81170;SDS011;70644;44.818;20.478;2023-09-08T03:01:12;7.65;;;6.95;;
81170;SDS011;70644;44.818;20.478;2023-09-08T03:03:39;7.10;;;6.20;;
81170;SDS011;70644;44.818;20.478;2023-09-08T03:06:05;7.75;;;6.85;;
81170;SDS011;70644;44.818;20.478;2023-09-08T03:08:31;7.65;;;6.90;;
81170;SDS011;70644;44.818;20.478;2023-09-08T03:10:58;6.32;;;5.72;;
81170;SDS011;70644;44.818;20.478;2023-09-08T03:13:25;6.70;;;6.07;;
81170;SDS011;70644;44.818;20.478;2023-09-08T03:15:54;7.22;;;5.57;;
81170;SDS011;70644;44.818;20.478;2023-09-08T03:18:22;7.47;;;6.22;;
81170;SDS011;70644;44.818;20.478;2023-09-08T03:20:51;6.60;;;5.90;;
81170;SDS011;70644;44.818;20.478;2023-09-08T03:23:17;7.25;;;6.38;;
81170;SDS011;70644;44.818;20.478;2023-09-08T03:25:43;6.82;;;6.13;;
81170;SDS011;70644;44.818;20.478;2023-09-08T03:28:09;6.70;;;6.00;;
81170;SDS011;70644;44.818;20.478;2023-09-08T03:30:35;8.07;;;6.03;;
81170;SDS011;70644;44.818;20.478;2023-09-08T03:33:01;7.28;;;5.85;;
81170;SDS011;70644;44.818;20.478;2023-09-08T03:35:27;7.28;;;6.57;;
81170;SDS011;70644;44.818;20.478;2023-09-08T03:37:54;6.05;;;5.45;;
81170;SDS011;70644;44.818;20.478;2023-09-08T03:40:20;5.93;;;4.72;;
81170;SDS011;70644;44.818;20.478;2023-09-08T03:42:46;6.82;;;6.03;;
81170;SDS011;70644;44.818;20.478;2023-09-08T03:45:12;6.10;;;5.30;;
81170;SDS011;70644;44.818;20.478;2023-09-08T03:47:38;6.63;;;5.82;;
81170;SDS011;70644;44.818;20.478;2023-09-08T03:50:04;8.10;;;5.70;;
81170;SDS011;70644;44.818;20.478;2023-09-08T03:52:31;6.60;;;5.90;;
81170;SDS011;70644;44.818;20.478;2023-09-08T03:54:57;7.13;;;6.10;;
81170;SDS011;70644;44.818;20.478;2023-09-08T03:57:23;6.38;;;5.70;;
81170;SDS011;70644;44.818;20.478;2023-09-08T03:59:49;5.85;;;5.07;;
81170;SDS011;70644;44.818;20.478;2023-09-08T04:02:15;6.85;;;5.63;;
81170;SDS011;70644;44.818;20.478;2023-09-08T04:04:41;6.55;;;5.95;;
81170;SDS011;70644;44.818;20.478;2023-09-08T04:07:07;6.70;;;5.53;;
81170;SDS011;70644;44.818;20.478;2023-09-08T04:09:33;5.47;;;4.80;;
81170;SDS011;70644;44.818;20.478;2023-09-08T04:11:59;6.32;;;4.90;;
81170;SDS011;70644;44.818;20.478;2023-09-08T04:14:25;5.78;;;5.25;;
81170;SDS011;70644;44.818;20.478;2023-09-08T04:16:53;6.25;;;5.65;;
81170;SDS011;70644;44.818;20.478;2023-09-08T04:19:19;5.60;;;5.00;;
81170;SDS011;70644;44.818;20.478;2023-09-08T04:21:45;6.05;;;5.45;;
81170;SDS011;70644;44.818;20.478;2023-09-08T04:24:12;5.97;;;5.38;;
81170;SDS011;70644;44.818;20.478;2023-09-08T04:26:38;6.35;;;5.30;;
81170;SDS011;70644;44.818;20.478;2023-09-08T04:29:04;5.72;;;5.22;;
81170;SDS011;70644;44.818;20.478;2023-09-08T04:31:30;6.45;;;5.50;;
81170;SDS011;70644;44.818;20.478;2023-09-08T04:33:56;6.35;;;5.75;;
81170;SDS011;70644;44.818;20.478;2023-09-08T04:36:22;6.47;;;5.88;;
81170;SDS011;70644;44.818;20.478;2023-09-08T04:38:48;6.53;;;5.93;;
81170;SDS011;70644;44.818;20.478;2023-09-08T04:41:14;6.10;;;5.50;;
81170;SDS011;70644;44.818;20.478;2023-09-08T04:43:40;6.57;;;4.93;;
81170;SDS011;70644;44.818;20.478;2023-09-08T04:46:06;5.68;;;5.07;;
81170;SDS011;70644;44.818;20.478;2023-09-08T04:48:33;7.15;;;5.60;;
81170;SDS011;70644;44.818;20.478;2023-09-08T04:50:59;6.60;;;5.25;;
81170;SDS011;70644;44.818;20.478;2023-09-08T04:53:25;5.95;;;5.35;;
81170;SDS011;70644;44.818;20.478;2023-09-08T04:55:51;5.78;;;5.18;;
81170;SDS011;70644;44.818;20.478;2023-09-08T04:58:17;6.15;;;5.43;;
81170;SDS011;70644;44.818;20.478;2023-09-08T05:00:44;5.82;;;5.25;;
81170;SDS011;70644;44.818;20.478;2023-09-08T05:03:10;5.90;;;5.28;;
81170;SDS011;70644;44.818;20.478;2023-09-08T05:05:36;5.72;;;5.13;;
81170;SDS011;70644;44.818;20.478;2023-09-08T05:08:02;6.38;;;5.50;;
81170;SDS011;70644;44.818;20.478;2023-09-08T05:10:29;5.88;;;5.28;;
81170;SDS011;70644;44.818;20.478;2023-09-08T05:12:55;5.80;;;5.18;;
81170;SDS011;70644;44.818;20.478;2023-09-08T05:15:21;5.30;;;4.45;;
81170;SDS011;70644;44.818;20.478;2023-09-08T05:17:47;5.75;;;5.10;;
81170;SDS011;70644;44.818;20.478;2023-09-08T05:20:13;5.88;;;5.28;;
81170;SDS011;70644;44.818;20.478;2023-09-08T05:22:39;6.22;;;5.18;;
81170;SDS011;70644;44.818;20.478;2023-09-08T05:25:05;6.18;;;5.05;;
81170;SDS011;70644;44.818;20.478;2023-09-08T05:27:31;5.85;;;5.25;;
81170;SDS011;70644;44.818;20.478;2023-09-08T05:29:57;5.93;;;5.32;;
81170;SDS011;70644;44.818;20.478;2023-09-08T05:32:24;6.93;;;5.50;;
81170;SDS011;70644;44.818;20.478;2023-09-08T05:34:50;7.65;;;5.63;;
81170;SDS011;70644;44.818;20.478;2023-09-08T05:37:16;6.82;;;6.00;;
81170;SDS011;70644;44.818;20.478;2023-09-08T05:39:42;8.43;;;5.80;;
81170;SDS011;70644;44.818;20.478;2023-09-08T05:42:08;7.47;;;5.80;;
81170;SDS011;70644;44.818;20.478;2023-09-08T05:44:34;7.20;;;5.32;;
81170;SDS011;70644;44.818;20.478;2023-09-08T05:47:00;8.18;;;5.88;;
81170;SDS011;70644;44.818;20.478;2023-09-08T05:49:26;9.88;;;5.32;;
81170;SDS011;70644;44.818;20.478;2023-09-08T05:51:52;8.45;;;5.57;;
81170;SDS011;70644;44.818;20.478;2023-09-08T05:54:18;7.07;;;5.20;;
81170;SDS011;70644;44.818;20.478;2023-09-08T05:56:44;6.88;;;6.03;;
81170;SDS011;70644;44.818;20.478;2023-09-08T05:59:10;6.40;;;4.32;;
81170;SDS011;70644;44.818;20.478;2023-09-08T06:01:36;6.53;;;5.60;;
81170;SDS011;70644;44.818;20.478;2023-09-08T06:04:02;6.15;;;5.55;;
81170;SDS011;70644;44.818;20.478;2023-09-08T06:06:28;7.40;;;5.53;;
81170;SDS011;70644;44.818;20.478;2023-09-08T06:08:54;6.43;;;5.68;;
81170;SDS011;70644;44.818;20.478;2023-09-08T06:11:21;6.93;;;5.20;;
81170;SDS011;70644;44.818;20.478;2023-09-08T06:13:47;6.50;;;5.43;;
81170;SDS011;70644;44.818;20.478;2023-09-08T06:16:13;7.22;;;5.60;;
81170;SDS011;70644;44.818;20.478;2023-09-08T06:18:39;7.13;;;5.32;;
81170;SDS011;70644;44.818;20.478;2023-09-08T06:21:05;6.22;;;5.22;;
81170;SDS011;70644;44.818;20.478;2023-09-08T06:23:32;7.07;;;5.40;;
81170;SDS011;70644;44.818;20.478;2023-09-08T06:25:59;5.65;;;4.63;;
81170;SDS011;70644;44.818;20.478;2023-09-08T06:28:25;7.15;;;4.60;;
81170;SDS011;70644;44.818;20.478;2023-09-08T06:30:51;6.03;;;5.30;;
81170;SDS011;70644;44.818;20.478;2023-09-08T06:33:17;7.32;;;5.72;;
81170;SDS011;70644;44.818;20.478;2023-09-08T06:35:44;6.50;;;5.38;;
81170;SDS011;70644;44.818;20.478;2023-09-08T06:38:10;5.60;;;4.90;;
81170;SDS011;70644;44.818;20.478;2023-09-08T06:40:36;5.60;;;4.47;;
81170;SDS011;70644;44.818;20.478;2023-09-08T06:43:02;6.60;;;5.28;;
81170;SDS011;70644;44.818;20.478;2023-09-08T06:45:28;8.05;;;5.55;;
81170;SDS011;70644;44.818;20.478;2023-09-08T06:47:54;6.13;;;5.43;;
81170;SDS011;70644;44.818;20.478;2023-09-08T06:50:21;6.63;;;5.10;;
81170;SDS011;70644;44.818;20.478;2023-09-08T06:52:47;5.80;;;5.20;;
81170;SDS011;70644;44.818;20.478;2023-09-08T06:55:13;6.50;;;5.45;;
81170;SDS011;70644;44.818;20.478;2023-09-08T06:57:41;6.20;;;5.13;;
81170;SDS011;70644;44.818;20.478;2023-09-08T07:00:07;5.60;;;5.10;;
81170;SDS011;70644;44.818;20.478;2023-09-08T07:02:33;7.28;;;5.63;;
81170;SDS011;70644;44.818;20.478;2023-09-08T07:04:59;5.63;;;5.10;;
81170;SDS011;70644;44.818;20.478;2023-09-08T07:07:31;5.60;;;5.00;;
81170;SDS011;70644;44.818;20.478;2023-09-08T07:09:57;7.38;;;5.45;;
81170;SDS011;70644;44.818;20.478;2023-09-08T07:12:23;5.75;;;4.45;;
81170;SDS011;70644;44.818;20.478;2023-09-08T07:14:49;5.75;;;4.50;;
81170;SDS011;70644;44.818;20.478;2023-09-08T07:17:15;5.75;;;5.10;;
81170;SDS011;70644;44.818;20.478;2023-09-08T07:19:41;7.90;;;4.88;;
81170;SDS011;70644;44.818;20.478;2023-09-08T07:22:07;6.28;;;5.68;;
81170;SDS011;70644;44.818;20.478;2023-09-08T07:24:33;7.82;;;5.70;;
81170;SDS011;70644;44.818;20.478;2023-09-08T07:27:00;6.47;;;5.68;;
81170;SDS011;70644;44.818;20.478;2023-09-08T07:29:26;9.63;;;5.78;;
81170;SDS011;70644;44.818;20.478;2023-09-08T07:31:52;8.13;;;5.93;;
81170;SDS011;70644;44.818;20.478;2023-09-08T07:34:18;7.20;;;5.72;;
81170;SDS011;70644;44.818;20.478;2023-09-08T07:36:44;6.95;;;5.70;;
81170;SDS011;70644;44.818;20.478;2023-09-08T07:39:11;6.68;;;5.53;;
81170;SDS011;70644;44.818;20.478;2023-09-08T07:41:37;6.97;;;5.93;;
81170;SDS011;70644;44.818;20.478;2023-09-08T07:44:05;7.00;;;5.90;;
81170;SDS011;70644;44.818;20.478;2023-09-08T07:46:31;8.90;;;6.00;;
81170;SDS011;70644;44.818;20.478;2023-09-08T07:48:58;7.10;;;6.40;;
81170;SDS011;70644;44.818;20.478;2023-09-08T07:51:24;12.65;;;6.15;;
81170;SDS011;70644;44.818;20.478;2023-09-08T07:53:51;9.50;;;5.78;;
81170;SDS011;70644;44.818;20.478;2023-09-08T07:56:17;7.57;;;6.00;;
81170;SDS011;70644;44.818;20.478;2023-09-08T07:58:43;8.82;;;6.65;;
81170;SDS011;70644;44.818;20.478;2023-09-08T08:01:09;8.23;;;6.28;;
81170;SDS011;70644;44.818;20.478;2023-09-08T08:03:36;9.23;;;6.32;;
81170;SDS011;70644;44.818;20.478;2023-09-08T08:06:02;8.88;;;6.00;;
81170;SDS011;70644;44.818;20.478;2023-09-08T08:08:29;9.40;;;6.60;;
81170;SDS011;70644;44.818;20.478;2023-09-08T08:10:55;8.02;;;6.18;;
81170;SDS011;70644;44.818;20.478;2023-09-08T08:13:21;6.70;;;5.60;;
81170;SDS011;70644;44.818;20.478;2023-09-08T08:15:47;9.80;;;6.50;;
81170;SDS011;70644;44.818;20.478;2023-09-08T08:18:14;7.28;;;6.53;;
81170;SDS011;70644;44.818;20.478;2023-09-08T08:20:40;10.05;;;6.75;;
81170;SDS011;70644;44.818;20.478;2023-09-08T08:23:07;10.68;;;6.82;;
81170;SDS011;70644;44.818;20.478;2023-09-08T08:25:33;9.40;;;6.72;;
81170;SDS011;70644;44.818;20.478;2023-09-08T08:27:59;7.78;;;6.97;;
81170;SDS011;70644;44.818;20.478;2023-09-08T08:30:26;8.82;;;6.70;;
81170;SDS011;70644;44.818;20.478;2023-09-08T08:32:52;9.57;;;6.18;;
81170;SDS011;70644;44.818;20.478;2023-09-08T08:35:21;7.97;;;6.63;;
81170;SDS011;70644;44.818;20.478;2023-09-08T08:37:47;8.80;;;7.20;;
81170;SDS011;70644;44.818;20.478;2023-09-08T08:40:14;10.10;;;7.22;;
81170;SDS011;70644;44.818;20.478;2023-09-08T08:42:40;11.57;;;8.18;;
81170;SDS011;70644;44.818;20.478;2023-09-08T08:45:07;9.48;;;7.35;;
81170;SDS011;70644;44.818;20.478;2023-09-08T08:47:33;8.98;;;6.78;;
81170;SDS011;70644;44.818;20.478;2023-09-08T08:50:00;9.25;;;6.72;;
81170;SDS011;70644;44.818;20.478;2023-09-08T08:52:26;10.15;;;7.78;;
81170;SDS011;70644;44.818;20.478;2023-09-08T08:54:52;12.05;;;6.50;;
81170;SDS011;70644;44.818;20.478;2023-09-08T08:57:20;10.02;;;8.05;;
81170;SDS011;70644;44.818;20.478;2023-09-08T08:59:46;10.77;;;7.90;;
81170;SDS011;70644;44.818;20.478;2023-09-08T09:02:14;9.38;;;7.32;;
81170;SDS011;70644;44.818;20.478;2023-09-08T09:04:40;10.38;;;7.68;;
81170;SDS011;70644;44.818;20.478;2023-09-08T09:07:07;8.10;;;7.30;;
81170;SDS011;70644;44.818;20.478;2023-09-08T09:09:33;11.32;;;7.63;;
81170;SDS011;70644;44.818;20.478;2023-09-08T09:11:59;8.20;;;6.90;;
81170;SDS011;70644;44.818;20.478;2023-09-08T09:14:27;14.57;;;8.18;;
81170;SDS011;70644;44.818;20.478;2023-09-08T09:16:55;10.55;;;6.78;;
81170;SDS011;70644;44.818;20.478;2023-09-08T09:19:22;23.73;;;7.47;;
81170;SDS011;70644;44.818;20.478;2023-09-08T09:21:56;20.33;;;7.65;;
81170;SDS011;70644;44.818;20.478;2023-09-08T09:24:30;11.60;;;6.93;;
81170;SDS011;70644;44.818;20.478;2023-09-08T09:26:57;12.00;;;7.13;;
81170;SDS011;70644;44.818;20.478;2023-09-08T09:29:24;11.00;;;7.18;;
81170;SDS011;70644;44.818;20.478;2023-09-08T09:32:11;12.25;;;7.00;;
81170;SDS011;70644;44.818;20.478;2023-09-08T09:34:36;12.48;;;7.00;;
81170;SDS011;70644;44.818;20.478;2023-09-08T09:37:12;7.75;;;6.50;;
81170;SDS011;70644;44.818;20.478;2023-09-08T09:39:39;8.63;;;6.45;;
81170;SDS011;70644;44.818;20.478;2023-09-08T09:42:07;9.77;;;7.18;;
81170;SDS011;70644;44.818;20.478;2023-09-08T09:44:33;12.18;;;7.90;;
81170;SDS011;70644;44.818;20.478;2023-09-08T09:47:00;9.52;;;7.15;;
81170;SDS011;70644;44.818;20.478;2023-09-08T09:49:26;9.40;;;7.43;;
81170;SDS011;70644;44.818;20.478;2023-09-08T09:51:57;8.88;;;7.97;;
81170;SDS011;70644;44.818;20.478;2023-09-08T09:54:24;8.70;;;7.47;;
81170;SDS011;70644;44.818;20.478;2023-09-08T09:56:50;10.75;;;7.68;;
81170;SDS011;70644;44.818;20.478;2023-09-08T09:59:17;10.65;;;7.43;;
81170;SDS011;70644;44.818;20.478;2023-09-08T10:01:43;10.70;;;7.93;;
81170;SDS011;70644;44.818;20.478;2023-09-08T10:04:09;12.82;;;10.93;;
81170;SDS011;70644;44.818;20.478;2023-09-08T10:06:36;11.38;;;7.90;;
81170;SDS011;70644;44.818;20.478;2023-09-08T10:09:03;16.80;;;11.23;;
81170;SDS011;70644;44.818;20.478;2023-09-08T10:11:49;10.98;;;8.32;;
81170;SDS011;70644;44.818;20.478;2023-09-08T10:14:15;9.98;;;8.18;;
81170;SDS011;70644;44.818;20.478;2023-09-08T10:16:43;12.25;;;7.13;;
81170;SDS011;70644;44.818;20.478;2023-09-08T10:19:10;9.63;;;8.50;;
81170;SDS011;70644;44.818;20.478;2023-09-08T10:21:40;11.60;;;8.57;;
81170;SDS011;70644;44.818;20.478;2023-09-08T10:24:21;13.20;;;8.48;;
81170;SDS011;70644;44.818;20.478;2023-09-08T10:26:51;9.35;;;7.88;;
81170;SDS011;70644;44.818;20.478;2023-09-08T10:29:21;12.88;;;8.98;;
81170;SDS011;70644;44.818;20.478;2023-09-08T10:31:48;10.25;;;8.32;;
81170;SDS011;70644;44.818;20.478;2023-09-08T10:34:14;9.80;;;7.70;;
81170;SDS011;70644;44.818;20.478;2023-09-08T10:36:41;10.77;;;8.32;;
81170;SDS011;70644;44.818;20.478;2023-09-08T10:39:26;11.07;;;8.82;;
81170;SDS011;70644;44.818;20.478;2023-09-08T10:44:39;9.52;;;8.20;;
81170;SDS011;70644;44.818;20.478;2023-09-08T10:47:05;10.93;;;7.53;;
81170;SDS011;70644;44.818;20.478;2023-09-08T10:49:34;9.77;;;8.60;;
81170;SDS011;70644;44.818;20.478;2023-09-08T10:52:10;9.88;;;8.20;;
81170;SDS011;70644;44.818;20.478;2023-09-08T10:54:40;12.15;;;8.85;;
81170;SDS011;70644;44.818;20.478;2023-09-08T10:57:07;9.32;;;8.30;;
81170;SDS011;70644;44.818;20.478;2023-09-08T10:59:38;10.27;;;8.63;;
81170;SDS011;70644;44.818;20.478;2023-09-08T11:02:04;9.45;;;8.45;;
81170;SDS011;70644;44.818;20.478;2023-09-08T11:04:30;9.13;;;8.23;;
81170;SDS011;70644;44.818;20.478;2023-09-08T11:06:58;9.93;;;8.75;;
81170;SDS011;70644;44.818;20.478;2023-09-08T11:09:24;9.43;;;7.63;;
81170;SDS011;70644;44.818;20.478;2023-09-08T11:11:50;11.85;;;9.07;;
81170;SDS011;70644;44.818;20.478;2023-09-08T11:14:16;14.73;;;8.85;;
81170;SDS011;70644;44.818;20.478;2023-09-08T11:16:43;11.07;;;8.63;;
81170;SDS011;70644;44.818;20.478;2023-09-08T11:19:09;11.98;;;8.68;;
81170;SDS011;70644;44.818;20.478;2023-09-08T11:21:35;16.05;;;8.30;;
81170;SDS011;70644;44.818;20.478;2023-09-08T11:24:02;13.18;;;8.95;;
81170;SDS011;70644;44.818;20.478;2023-09-08T11:26:32;12.13;;;9.38;;
81170;SDS011;70644;44.818;20.478;2023-09-08T11:28:59;11.30;;;8.45;;
81170;SDS011;70644;44.818;20.478;2023-09-08T11:31:25;11.90;;;8.57;;
81170;SDS011;70644;44.818;20.478;2023-09-08T11:33:54;9.80;;;8.80;;
81170;SDS011;70644;44.818;20.478;2023-09-08T11:36:20;9.88;;;7.68;;
81170;SDS011;70644;44.818;20.478;2023-09-08T11:38:46;12.23;;;8.50;;
81170;SDS011;70644;44.818;20.478;2023-09-08T11:41:12;9.73;;;8.63;;
81170;SDS011;70644;44.818;20.478;2023-09-08T11:43:39;9.70;;;8.70;;
81170;SDS011;70644;44.818;20.478;2023-09-08T11:46:05;11.32;;;7.80;;
81170;SDS011;70644;44.818;20.478;2023-09-08T11:48:31;10.13;;;8.18;;
81170;SDS011;70644;44.818;20.478;2023-09-08T11:50:58;12.02;;;8.70;;
81170;SDS011;70644;44.818;20.478;2023-09-08T11:53:24;10.20;;;8.02;;
81170;SDS011;70644;44.818;20.478;2023-09-08T11:55:52;11.05;;;8.27;;
81170;SDS011;70644;44.818;20.478;2023-09-08T11:58:18;8.80;;;7.90;;
81170;SDS011;70644;44.818;20.478;2023-09-08T12:00:45;11.00;;;8.48;;
81170;SDS011;70644;44.818;20.478;2023-09-08T12:05:50;10.27;;;8.60;;
81170;SDS011;70644;44.818;20.478;2023-09-08T12:08:17;8.98;;;8.07;;
81170;SDS011;70644;44.818;20.478;2023-09-08T12:10:43;9.63;;;8.45;;
81170;SDS011;70644;44.818;20.478;2023-09-08T12:13:09;9.85;;;8.63;;
81170;SDS011;70644;44.818;20.478;2023-09-08T12:15:36;9.50;;;8.50;;
81170;SDS011;70644;44.818;20.478;2023-09-08T12:18:06;9.88;;;8.15;;
81170;SDS011;70644;44.818;20.478;2023-09-08T12:20:33;8.65;;;7.78;;
81170;SDS011;70644;44.818;20.478;2023-09-08T12:23:00;8.68;;;7.30;;
81170;SDS011;70644;44.818;20.478;2023-09-08T12:25:27;9.27;;;8.27;;
81170;SDS011;70644;44.818;20.478;2023-09-08T12:27:53;10.20;;;8.70;;
81170;SDS011;70644;44.818;20.478;2023-09-08T12:30:20;9.60;;;8.55;;
81170;SDS011;70644;44.818;20.478;2023-09-08T12:32:47;10.80;;;9.30;;
81170;SDS011;70644;44.818;20.478;2023-09-08T12:35:19;9.32;;;8.40;;
81170;SDS011;70644;44.818;20.478;2023-09-08T12:37:46;9.63;;;8.63;;
81170;SDS011;70644;44.818;20.478;2023-09-08T12:40:13;9.20;;;8.07;;
81170;SDS011;70644;44.818;20.478;2023-09-08T12:42:40;8.80;;;7.68;;
81170;SDS011;70644;44.818;20.478;2023-09-08T12:45:06;9.90;;;8.98;;
81170;SDS011;70644;44.818;20.478;2023-09-08T12:47:33;9.80;;;8.48;;
81170;SDS011;70644;44.818;20.478;2023-09-08T12:50:01;9.70;;;8.70;;
81170;SDS011;70644;44.818;20.478;2023-09-08T12:52:27;9.93;;;8.25;;
81170;SDS011;70644;44.818;20.478;2023-09-08T12:54:53;10.00;;;8.65;;
81170;SDS011;70644;44.818;20.478;2023-09-08T12:57:19;8.77;;;7.55;;
81170;SDS011;70644;44.818;20.478;2023-09-08T12:59:45;10.10;;;8.10;;
81170;SDS011;70644;44.818;20.478;2023-09-08T13:02:13;9.15;;;8.18;;
81170;SDS011;70644;44.818;20.478;2023-09-08T13:04:39;9.27;;;7.72;;
81170;SDS011;70644;44.818;20.478;2023-09-08T13:07:05;11.23;;;7.82;;
81170;SDS011;70644;44.818;20.478;2023-09-08T13:09:31;14.40;;;8.32;;
81170;SDS011;70644;44.818;20.478;2023-09-08T13:11:57;10.23;;;7.28;;
81170;SDS011;70644;44.818;20.478;2023-09-08T13:14:23;12.05;;;7.35;;
81170;SDS011;70644;44.818;20.478;2023-09-08T13:16:49;10.63;;;9.52;;
81170;SDS011;70644;44.818;20.478;2023-09-08T13:19:15;11.25;;;7.43;;
81170;SDS011;70644;44.818;20.478;2023-09-08T13:21:42;11.48;;;8.60;;
81170;SDS011;70644;44.818;20.478;2023-09-08T13:24:08;10.82;;;7.75;;
81170;SDS011;70644;44.818;20.478;2023-09-08T13:26:34;9.18;;;7.75;;
81170;SDS011;70644;44.818;20.478;2023-09-08T13:29:00;11.57;;;7.95;;
81170;SDS011;70644;44.818;20.478;2023-09-08T13:31:26;10.20;;;8.63;;
81170;SDS011;70644;44.818;20.478;2023-09-08T13:33:52;12.45;;;7.32;;
81170;SDS011;70644;44.818;20.478;2023-09-08T13:36:18;9.63;;;7.88;;
81170;SDS011;70644;44.818;20.478;2023-09-08T13:38:44;7.82;;;6.82;;
81170;SDS011;70644;44.818;20.478;2023-09-08T13:41:10;8.25;;;6.90;;
81170;SDS011;70644;44.818;20.478;2023-09-08T13:43:36;10.18;;;8.45;;
81170;SDS011;70644;44.818;20.478;2023-09-08T13:46:02;9.13;;;8.00;;
81170;SDS011;70644;44.818;20.478;2023-09-08T13:48:28;11.63;;;8.18;;
81170;SDS011;70644;44.818;20.478;2023-09-08T13:50:54;10.77;;;7.88;;
81170;SDS011;70644;44.818;20.478;2023-09-08T13:53:21;11.15;;;8.68;;
81170;SDS011;70644;44.818;20.478;2023-09-08T13:55:47;9.55;;;8.60;;
81170;SDS011;70644;44.818;20.478;2023-09-08T13:58:13;10.45;;;8.82;;
81170;SDS011;70644;44.818;20.478;2023-09-08T14:00:39;11.95;;;8.85;;
81170;SDS011;70644;44.818;20.478;2023-09-08T14:03:06;11.60;;;8.82;;
81170;SDS011;70644;44.818;20.478;2023-09-08T14:05:32;9.23;;;7.90;;
81170;SDS011;70644;44.818;20.478;2023-09-08T14:07:58;8.45;;;7.55;;
81170;SDS011;70644;44.818;20.478;2023-09-08T14:10:27;10.10;;;6.65;;
81170;SDS011;70644;44.818;20.478;2023-09-08T14:12:53;9.63;;;8.43;;
81170;SDS011;70644;44.818;20.478;2023-09-08T14:15:19;9.30;;;7.10;;
81170;SDS011;70644;44.818;20.478;2023-09-08T14:17:45;9.00;;;8.07;;
81170;SDS011;70644;44.818;20.478;2023-09-08T14:20:11;10.25;;;8.57;;
81170;SDS011;70644;44.818;20.478;2023-09-08T14:22:37;8.35;;;7.35;;
81170;SDS011;70644;44.818;20.478;2023-09-08T14:25:04;10.82;;;8.93;;
81170;SDS011;70644;44.818;20.478;2023-09-08T14:27:30;12.60;;;8.20;;
81170;SDS011;70644;44.818;20.478;2023-09-08T14:29:57;10.32;;;9.00;;
81170;SDS011;70644;44.818;20.478;2023-09-08T14:32:23;10.50;;;7.72;;
81170;SDS011;70644;44.818;20.478;2023-09-08T14:34:49;8.93;;;7.47;;